Time;durP1;ratioP1;P1;durP2;ratioP2;P2;SDS_P1;SDS_P2;PMS_P1;PMS_P2;Temp;Humidity;BMP_temperature;BMP_pressure;BME280_temperature;BME280_humidity;BME280_pressure;Samples;Min_cycle;Max_cycle;Signal;HPM_P1;HPM_P2
2022/01/03 00:53:27;;;;;;;;;;;;;;;9.83;79.15;101042.22;5614696;24;20402;-91
2022/01/03 00:56:04;;;;;;;;;;;;;;;9.85;79.28;101031.81;4979858;30;19925;-86
2022/01/03 00:58:37;;;;;;;;;;;;;;;9.92;78.54;101037.84;4977253;30;19933;-85
2022/01/03 01:01:08;;;;;;;;;;;;;;;9.99;77.83;101036.94;4972345;30;20016;-80
2022/01/03 01:03:40;;;;;;;;;;;;;;;9.93;78.28;101045.63;4970157;30;20012;-90
2022/01/03 01:06:13;;;;;;;;;;;;;;;9.97;77.89;101039.56;4969056;30;19971;-87
2022/01/03 01:25:21;;;;;;;;;;;;;;;9.82;80.02;101045.72;5100268;24;20286;-74
2022/01/03 01:27:48;;;;;;;;;;;;;;;9.71;80.52;101054.44;4966045;30;19926;-86
2022/01/03 01:30:21;;;;;;;;;;;;;;;9.70;80.65;101068.34;4965919;30;19924;-80
2022/01/03 01:33:22;;;;;;;;;;;;;;;9.72;80.38;101064.00;4967807;30;19922;-82
2022/01/03 02:06:33;;;;;;;;;;;;;;;9.24;82.63;101084.97;4966220;30;19957;-79
2022/01/03 02:09:19;;;;;;;;;;;;;;;9.11;83.38;101085.03;4965528;30;19922;-89
2022/01/03 02:17:13;;;;;;;;;;;;;;;8.98;84.15;101080.69;5880652;24;19929;-85
2022/01/03 02:20:00;;;;;;;;;;;;;;;8.96;84.38;101090.22;4965614;30;19933;-85
2022/01/03 02:22:31;;;;;;;;;;;;;;;8.93;84.50;101087.63;4964497;30;20294;-75
2022/01/03 02:25:03;;;;;;;;;;;;;;;8.90;84.83;101087.63;4966293;30;19914;-86
2022/01/03 02:27:34;;;;;;;;;;;;;;;8.91;84.62;101091.97;4970723;30;19922;-88
2022/01/03 02:30:08;;;;;;;;;;;;;;;8.86;84.79;101091.97;4966219;30;19917;-83
2022/01/03 02:32:40;;;;;;;;;;;;;;;8.92;84.78;101096.31;4965655;30;19917;-87
2022/01/03 03:02:32;;;;;;;;;;;;;;;8.88;84.75;101082.44;4972076;30;19988;-83
2022/01/03 03:11:32;;;;;;;;;;;;;;;8.78;85.62;101105.88;4983916;30;19905;-79
2022/01/03 03:14:03;;;;;;;;;;;;;;;8.76;85.54;101092.88;4984646;30;20504;-86
2022/01/03 03:16:34;;;;;;;;;;;;;;;8.74;85.59;101091.97;4980520;30;19918;-86
2022/01/03 03:19:06;;;;;;;;;;;;;;;8.71;85.58;101091.97;4974101;30;20450;-82
2022/01/03 03:21:37;;;;;;;;;;;;;;;8.65;86.08;101092.00;4969857;30;19921;-77
2022/01/03 03:24:08;;;;;;;;;;;;;;;8.71;85.93;101089.38;4967781;30;19918;-81
2022/01/03 03:26:39;;;;;;;;;;;;;;;8.82;85.58;101084.19;4949695;30;20343;-89
2022/01/03 03:29:11;;;;;;;;;;;;;;;8.89;85.38;101096.31;4965536;30;20378;-86
2022/01/03 03:31:43;;;;;;;;;;;;;;;8.96;85.23;101108.44;4966071;30;20319;-88
2022/01/03 03:34:14;;;;;;;;;;;;;;;9.14;84.59;101097.13;4965765;30;20700;-86
2022/01/03 03:36:46;;;;;;;;;;;;;;;9.11;84.86;101100.63;4967856;30;19918;-85
2022/01/03 03:39:17;;;;;;;;;;;;;;;9.13;84.63;101106.69;4950814;30;20270;-84
2022/01/03 03:41:48;;;;;;;;;;;;;;;9.18;84.60;101111.88;4970182;30;19929;-77
2022/01/03 03:44:19;;;;;;;;;;;;;;;9.21;84.69;101100.59;4966608;30;19933;-87
2022/01/03 03:46:51;;;;;;;;;;;;;;;9.18;84.63;101098.88;4965843;30;19929;-86
2022/01/03 03:49:22;;;;;;;;;;;;;;;9.20;84.63;101094.53;4965625;30;20008;-89
2022/01/03 03:51:53;;;;;;;;;;;;;;;9.07;85.12;101085.88;4966071;30;19974;-77
2022/01/03 03:54:25;;;;;;;;;;;;;;;9.11;84.79;101097.13;4966365;30;20013;-93
2022/01/03 03:56:57;;;;;;;;;;;;;;;9.07;84.91;101093.69;4966716;30;20824;-86
2022/01/03 03:59:28;;;;;;;;;;;;;;;9.02;85.19;101094.56;4964578;30;19926;-91
2022/01/03 04:02:00;;;;;;;;;;;;;;;8.93;85.37;101087.63;4966405;30;20303;-92
2022/01/03 04:04:31;;;;;;;;;;;;;;;8.96;85.22;101082.44;4966757;30;19939;-89
2022/01/03 04:07:03;;;;;;;;;;;;;;;8.99;85.33;101089.38;4966701;30;19929;-91
2022/01/03 04:09:34;;;;;;;;;;;;;;;9.11;84.77;101090.22;4968191;30;20385;-87
2022/01/03 04:12:06;;;;;;;;;;;;;;;9.15;84.42;101074.63;4966658;30;19953;-86
2022/01/03 04:14:37;;;;;;;;;;;;;;;9.20;84.48;101078.06;4964851;30;19961;-86
2022/01/03 04:17:09;;;;;;;;;;;;;;;9.16;84.58;101077.22;4969169;30;19938;-85
2022/01/03 04:19:41;;;;;;;;;;;;;;;9.15;84.79;101072.88;4969862;30;19918;-76
2022/01/03 04:22:12;;;;;;;;;;;;;;;9.17;84.49;101078.94;4972144;30;19929;-86
2022/01/03 04:24:44;;;;;;;;;;;;;;;9.34;83.78;101071.09;4971740;30;20046;-75
2022/01/03 04:27:15;;;;;;;;;;;;;;;9.21;84.67;101075.47;4953930;30;19929;-88
2022/01/03 04:29:46;;;;;;;;;;;;;;;9.25;84.03;101058.09;4975312;30;19953;-83
2022/01/03 04:32:19;;;;;;;;;;;;;;;9.23;84.24;101057.25;4971173;30;20008;-79
2022/01/03 04:34:50;;;;;;;;;;;;;;;9.17;84.56;101062.47;4978943;30;20012;-78
2022/01/03 04:37:21;;;;;;;;;;;;;;;9.26;83.92;101080.66;4975687;30;20400;-87
2022/01/03 04:39:52;;;;;;;;;;;;;;;9.36;83.73;101066.75;4968207;30;19921;-80
2022/01/03 04:42:24;;;;;;;;;;;;;;;9.39;83.39;101066.72;4967903;30;19970;-89
2022/01/03 04:44:56;;;;;;;;;;;;;;;9.37;83.68;101062.38;4968151;30;19979;-85
2022/01/03 04:47:28;;;;;;;;;;;;;;;9.38;83.90;101059.78;4967988;30;19929;-79
2022/01/03 04:49:59;;;;;;;;;;;;;;;9.36;83.80;101063.28;4968121;30;20263;-84
2022/01/03 04:52:30;;;;;;;;;;;;;;;9.41;83.55;101058.91;4967323;30;20405;-90
2022/01/03 04:55:02;;;;;;;;;;;;;;;9.39;83.78;101050.25;4969393;30;19925;-75
2022/01/03 04:57:33;;;;;;;;;;;;;;;9.37;83.86;101049.38;4966672;30;20263;-86
2022/01/03 05:00:06;;;;;;;;;;;;;;;9.44;83.35;101044.16;4967427;30;20286;-87
2022/01/03 05:02:38;;;;;;;;;;;;;;;9.44;83.76;101051.09;4955443;30;19922;-87
2022/01/03 05:05:09;;;;;;;;;;;;;;;9.49;83.09;101049.34;4982767;30;19921;-83
2022/01/03 05:07:40;;;;;;;;;;;;;;;9.38;83.66;101051.13;4983221;30;19930;-88
2022/01/03 05:10:12;;;;;;;;;;;;;;;9.37;83.83;101050.28;4973694;30;19924;-88
2022/01/03 05:12:43;;;;;;;;;;;;;;;9.39;83.84;101048.50;4966946;30;19921;-86
2022/01/03 05:15:14;;;;;;;;;;;;;;;9.42;83.73;101053.72;4969244;30;20359;-86
2022/01/03 05:17:45;;;;;;;;;;;;;;;9.38;84.07;101033.75;4967137;30;19928;-87
2022/01/03 05:20:17;;;;;;;;;;;;;;;9.36;84.03;101042.47;4968012;30;19918;-92
2022/01/03 05:22:48;;;;;;;;;;;;;;;9.43;83.37;101028.56;4952473;30;19952;-90
2022/01/03 05:25:19;;;;;;;;;;;;;;;9.47;83.21;101035.47;4966293;30;20369;-79
2022/01/03 09:08:39;;;;;;;;;;;;;;;9.48;85.99;101022.47;4965495;30;19929;-84
2022/01/03 09:11:10;;;;;;;;;;;;;;;9.57;85.63;101010.28;4949213;30;19925;-79
2022/01/03 09:13:42;;;;;;;;;;;;;;;9.66;85.76;101018.06;4965047;30;20283;-84
2022/01/03 09:16:13;;;;;;;;;;;;;;;9.81;84.60;101004.94;4965149;30;19932;-83
2022/01/03 09:18:44;;;;;;;;;;;;;;;9.86;83.98;101016.16;4965295;30;19918;-84
2022/01/03 09:21:16;;;;;;;;;;;;;;;10.02;83.89;101003.06;4965068;30;19928;-85
2022/01/03 09:23:52;;;;;;;;;;;;;;;9.96;83.24;101008.31;4965195;30;19932;-84
2022/01/03 09:29:13;;;;;;;;;;;;;;;9.88;83.16;101004.91;4965654;30;20009;-83
2022/01/03 09:31:44;;;;;;;;;;;;;;;9.80;82.93;101008.41;4971471;30;19961;-84
2022/01/03 09:34:15;;;;;;;;;;;;;;;9.85;83.05;101001.44;4969765;30;20271;-84
2022/01/03 09:36:46;;;;;;;;;;;;;;;9.82;82.58;100978.03;4965580;30;19928;-86
2022/01/03 09:39:18;;;;;;;;;;;;;;;9.74;82.78;100972.00;4966879;30;20041;-78
2022/01/03 09:42:09;;;;;;;;;;;;;;;9.75;83.04;100985.88;4967460;30;19968;-85
2022/01/03 09:44:41;;;;;;;;;;;;;;;9.70;83.17;100985.91;4951180;30;20427;-81
2022/01/03 09:47:15;;;;;;;;;;;;;;;9.85;82.78;100990.16;4966839;30;20012;-84
2022/01/03 09:49:47;;;;;;;;;;;;;;;9.82;83.21;100984.97;4969246;30;19926;-81
2022/01/03 09:52:21;;;;;;;;;;;;;;;9.88;82.91;100978.84;4974316;30;20380;-81
2022/01/03 09:54:54;;;;;;;;;;;;;;;9.96;82.23;100990.09;4972030;30;19922;-81
2022/01/03 09:57:27;;;;;;;;;;;;;;;9.86;82.91;100992.75;4968183;30;19918;-82
2022/01/03 10:00:00;;;;;;;;;;;;;;;9.95;82.58;100988.34;4967333;30;19918;-81
2022/01/03 10:02:32;;;;;;;;;;;;;;;9.89;83.00;100981.44;4967843;30;19962;-82
2022/01/03 10:05:05;;;;;;;;;;;;;;;9.90;83.23;100985.81;4966461;30;19921;-82
2022/01/03 10:07:38;;;;;;;;;;;;;;;9.98;82.82;100985.72;4966014;30;19943;-84
2022/01/03 10:10:10;;;;;;;;;;;;;;;9.90;82.82;100982.31;4964723;30;20020;-83
2022/01/03 10:12:43;;;;;;;;;;;;;;;9.85;82.62;100975.41;4965059;30;20056;-84
2022/01/03 10:15:14;;;;;;;;;;;;;;;10.01;82.10;100983.09;4965253;30;19939;-79
2022/01/03 10:17:47;;;;;;;;;;;;;;;10.00;82.04;100970.97;4966679;30;19921;-84
2022/01/03 10:20:18;;;;;;;;;;;;;;;10.04;81.98;100981.31;4966147;30;19961;-86
2022/01/03 10:22:49;;;;;;;;;;;;;;;10.17;82.07;100997.72;4965889;30;19965;-82
2022/01/03 10:25:23;;;;;;;;;;;;;;;10.20;81.14;100989.88;4965083;30;19926;-87
2022/01/03 10:27:59;;;;;;;;;;;;;;;10.19;81.76;100990.78;4964916;30;19971;-85
2022/01/03 10:30:41;;;;;;;;;;;;;;;10.14;81.94;100976.94;4965796;30;19948;-84
2022/01/03 10:33:13;;;;;;;;;;;;;;;10.25;81.63;100976.81;4965171;30;20362;-80
2022/01/03 10:35:49;;;;;;;;;;;;;;;10.11;80.91;100982.16;4968239;30;19918;-77
2022/01/03 10:38:31;;;;;;;;;;;;;;;10.29;81.68;100977.66;4981452;29;19926;-83
2022/01/03 10:41:14;;;;;;;;;;;;;;;10.36;80.90;100953.31;4976513;30;19922;-78
2022/01/03 10:43:47;;;;;;;;;;;;;;;10.31;80.80;100965.50;4976567;30;19927;-76
2022/01/03 10:46:26;;;;;;;;;;;;;;;10.34;80.72;100952.50;4977238;30;19936;-79
2022/01/03 10:49:06;;;;;;;;;;;;;;;10.51;79.57;100960.13;4976609;30;19925;-79
2022/01/03 10:51:38;;;;;;;;;;;;;;;10.35;79.37;100946.38;4977250;30;19922;-83
2022/01/03 10:54:10;;;;;;;;;;;;;;;10.33;79.58;100946.38;4976916;30;20036;-82
2022/01/03 10:56:43;;;;;;;;;;;;;;;10.41;79.91;100948.94;4970016;30;19961;-83
2022/01/03 10:59:14;;;;;;;;;;;;;;;10.52;79.38;100922.78;4978363;30;19922;-79
2022/01/03 11:02:06;;;;;;;;;;;;;;;10.49;79.24;100921.03;4968007;30;19929;-74
2022/01/03 11:13:10;;;;;;;;;;;;;;;10.65;78.78;100910.47;4980385;30;19957;-84
2022/01/03 11:15:48;;;;;;;;;;;;;;;11.24;77.42;100905.41;4978994;30;19957;-84
2022/01/03 11:18:22;;;;;;;;;;;;;;;11.71;75.68;100908.22;4976774;30;19937;-76
2022/01/03 11:21:00;;;;;;;;;;;;;;;11.59;76.19;100915.34;4977816;30;19921;-74
2022/01/03 11:23:31;;;;;;;;;;;;;;;11.37;75.67;100900.88;4977717;30;19921;-75
2022/01/03 11:26:06;;;;;;;;;;;;;;;11.24;76.53;100898.44;4973961;30;19922;-74
2022/01/03 11:28:39;;;;;;;;;;;;;;;11.43;76.24;100900.75;4976363;30;19922;-78
2022/01/03 11:31:12;;;;;;;;;;;;;;;11.56;75.60;100899.72;4967172;30;19921;-81
2022/01/03 11:33:46;;;;;;;;;;;;;;;11.06;76.01;100893.44;4962763;30;20527;-82
2022/01/03 11:36:18;;;;;;;;;;;;;;;10.87;75.96;100901.50;4963617;30;19928;-80
2022/01/03 11:38:50;;;;;;;;;;;;;;;10.76;77.35;100893.81;4962278;30;20359;-81
2022/01/03 11:41:22;;;;;;;;;;;;;;;10.68;77.75;100882.63;4963508;30;19918;-82
2022/01/03 11:43:53;;;;;;;;;;;;;;;10.57;78.29;100880.13;4963101;30;20000;-77
2022/01/03 11:46:25;;;;;;;;;;;;;;;10.46;79.29;100895.00;4972556;30;19926;-85
2022/01/03 11:48:57;;;;;;;;;;;;;;;10.22;80.36;100881.34;4971651;30;20192;-81
2022/01/03 11:51:29;;;;;;;;;;;;;;;10.17;80.78;100861.41;4955071;30;19925;-76
2022/01/03 11:54:02;;;;;;;;;;;;;;;10.05;81.59;100854.59;4968130;30;19922;-82
2022/01/03 11:56:41;;;;;;;;;;;;;;;10.12;81.64;100853.63;4962979;30;19928;-83
2022/01/03 12:04:39;;;;;;;;;;;;;;;10.35;80.61;100842.16;4963082;30;19951;-83
2022/01/03 12:07:11;;;;;;;;;;;;;;;10.43;79.57;100844.69;4962827;30;19928;-74
2022/01/03 12:09:46;;;;;;;;;;;;;;;10.35;80.49;100835.22;4946626;30;19917;-85
2022/01/03 12:12:34;;;;;;;;;;;;;;;10.37;79.60;100845.63;4963166;30;20432;-75
2022/01/03 12:15:25;;;;;;;;;;;;;;;10.34;79.98;100837.84;4962313;30;20009;-81
2022/01/03 12:17:58;;;;;;;;;;;;;;;10.34;79.96;100827.41;4962398;30;20016;-84
2022/01/03 23:43:02;;;;;;;;;;;;;;;7.99;91.72;100106.34;5352707;24;19934;-82
2022/01/03 23:45:33;;;;;;;;;;;;;;;7.95;91.91;100092.56;4966346;30;19994;-74
2022/01/03 23:48:06;;;;;;;;;;;;;;;8.03;91.56;100095.91;4971370;30;19933;-75
2022/01/03 23:50:37;;;;;;;;;;;;;;;7.97;91.79;100098.59;4972179;30;20379;-81
2022/01/03 23:53:08;;;;;;;;;;;;;;;7.95;91.90;100084.78;4966294;30;19922;-83
2022/01/03 23:55:40;;;;;;;;;;;;;;;8.02;91.37;100083.81;4967548;30;19921;-83
2022/01/03 23:58:11;;;;;;;;;;;;;;;7.93;92.09;100083.91;4964472;30;19925;-82
